createdAt,value
2023-05-01T00:00:57.995Z,21.14
2023-05-01T00:01:57.992Z,21.11
2023-05-01T00:02:59.190Z,21.14
2023-05-01T00:03:58.300Z,21.13
2023-05-01T00:04:58.982Z,21.11
2023-05-01T00:05:57.976Z,21.13
2023-05-01T00:06:57.926Z,21.08
2023-05-01T00:07:57.946Z,21.08
2023-05-01T00:08:58.947Z,21.10
2023-05-01T00:09:59.281Z,21.07
2023-05-01T00:10:58.955Z,21.08
2023-05-01T00:11:58.952Z,21.11
2023-05-01T00:12:58.934Z,21.11
2023-05-01T00:13:58.984Z,21.10
2023-05-01T00:14:58.963Z,21.10
2023-05-01T00:15:59.174Z,21.08
2023-05-01T00:16:59.069Z,21.14
2023-05-01T00:17:57.961Z,21.11
2023-05-01T00:18:57.945Z,21.13
2023-05-01T00:19:59.248Z,21.10
2023-05-01T00:20:58.962Z,21.11
2023-05-01T00:21:58.936Z,21.14
2023-05-01T00:22:58.928Z,21.13
2023-05-01T00:23:58.961Z,21.04
2023-05-01T00:24:58.954Z,21.10
2023-05-01T00:25:59.116Z,21.14
2023-05-01T00:26:57.953Z,21.11
2023-05-01T00:27:58.940Z,21.10
2023-05-01T00:28:58.978Z,21.10
2023-05-01T00:29:59.145Z,21.11
2023-05-01T00:30:58.950Z,21.11
2023-05-01T00:31:59.014Z,21.15
2023-05-01T00:32:57.998Z,21.11
2023-05-01T00:33:58.959Z,21.10
2023-05-01T00:34:58.005Z,21.07
2023-05-01T00:35:59.023Z,21.07
2023-05-01T00:36:59.338Z,21.04
2023-05-01T00:37:58.991Z,21.05
2023-05-01T00:38:57.988Z,21.05
2023-05-01T00:39:59.282Z,21.07
2023-05-01T00:40:59.070Z,21.07
2023-05-01T00:41:59.031Z,21.07
2023-05-01T00:42:58.068Z,21.04
2023-05-01T00:43:58.049Z,21.03
2023-05-01T00:44:58.084Z,21.08
2023-05-01T00:45:59.132Z,21.04
2023-05-01T00:46:59.123Z,21.03
2023-05-01T00:47:59.217Z,21.01
2023-05-01T00:48:58.121Z,21.04
2023-05-01T00:49:59.233Z,21.04
2023-05-01T00:50:59.126Z,21.01
2023-05-01T00:51:59.127Z,21.00
2023-05-01T00:52:58.173Z,21.05
2023-05-01T00:53:59.151Z,21.00
2023-05-01T00:54:58.171Z,21.00
2023-05-01T00:55:59.207Z,21.01
2023-05-01T00:56:59.206Z,21.04
2023-05-01T00:57:58.212Z,21.00
2023-05-01T00:58:58.271Z,20.97
2023-05-01T00:59:58.515Z,21.00
2023-05-01T01:00:59.377Z,21.05
2023-05-01T01:01:59.345Z,21.00
2023-05-01T01:02:58.371Z,21.04
2023-05-01T01:03:59.365Z,21.04
2023-05-01T01:04:59.449Z,21.05
2023-05-01T01:05:59.377Z,21.04
2023-05-01T01:06:58.344Z,21.01
2023-05-01T01:07:59.443Z,21.00
2023-05-01T01:08:58.417Z,20.98
2023-05-01T01:09:58.597Z,21.04
2023-05-01T01:10:59.422Z,21.03
2023-05-01T01:11:58.430Z,21.00
2023-05-01T01:12:59.438Z,21.00
2023-05-01T01:13:58.488Z,21.00
2023-05-01T01:14:58.476Z,21.03
2023-05-01T01:15:59.522Z,20.98
2023-05-01T01:16:59.608Z,21.01
2023-05-01T01:17:59.580Z,21.01
2023-05-01T01:18:58.547Z,21.01
2023-05-01T01:19:58.546Z,20.98
2023-05-01T01:20:59.595Z,21.03
2023-05-01T01:21:59.577Z,21.03
2023-05-01T01:22:59.598Z,20.98
2023-05-01T01:23:59.621Z,21.05
2023-05-01T01:24:59.652Z,21.01
2023-05-01T01:25:58.681Z,20.97
2023-05-01T01:26:58.669Z,21.01
2023-05-01T01:27:59.590Z,20.97
2023-05-01T01:28:59.699Z,21.01
2023-05-01T01:29:59.725Z,21.01
2023-05-01T01:30:59.751Z,21.00
2023-05-01T01:31:58.736Z,21.01
2023-05-01T01:32:59.758Z,21.01
2023-05-01T01:33:59.757Z,20.98
2023-05-01T01:34:59.735Z,20.97
2023-05-01T01:35:59.757Z,20.97
2023-05-01T01:36:58.814Z,21.00
2023-05-01T01:37:59.765Z,21.01
2023-05-01T01:38:58.772Z,20.98
2023-05-01T01:39:59.782Z,21.00
2023-05-01T01:40:58.827Z,20.98
2023-05-01T01:41:58.801Z,21.04
2023-05-01T01:42:59.820Z,20.98
2023-05-01T01:43:58.821Z,21.01
2023-05-01T01:44:59.838Z,20.98
2023-05-01T01:45:58.971Z,20.98
2023-05-01T01:46:59.886Z,20.93
2023-05-01T01:47:59.924Z,20.94
2023-05-01T01:48:58.890Z,20.95
2023-05-01T01:49:59.903Z,20.98
2023-05-01T01:50:58.891Z,20.93
2023-05-01T01:51:59.906Z,20.94
2023-05-01T01:52:59.903Z,20.94
2023-05-01T01:53:59.967Z,20.95
2023-05-01T01:54:58.961Z,20.94
2023-05-01T01:56:01.787Z,20.93
2023-05-01T01:57:00.009Z,20.95
2023-05-01T01:57:59.999Z,20.98
2023-05-01T01:58:58.949Z,20.94
2023-05-01T01:59:59.990Z,20.94
2023-05-01T02:00:59.919Z,20.93
2023-05-01T02:01:59.003Z,20.95
2023-05-01T02:02:59.445Z,20.93
2023-05-01T02:04:00.194Z,20.95
2023-05-01T02:04:59.893Z,20.95
2023-05-01T02:05:58.945Z,20.97
2023-05-01T02:06:58.873Z,21.00
2023-05-01T02:07:59.852Z,20.98
2023-05-01T02:08:59.855Z,20.95
2023-05-01T02:09:59.898Z,20.97
2023-05-01T02:11:00.880Z,20.98
2023-05-01T02:11:58.854Z,20.97
2023-05-01T02:12:59.826Z,20.95
2023-05-01T02:13:59.804Z,20.94
2023-05-01T02:14:59.808Z,20.93
2023-05-01T02:15:58.828Z,20.91
2023-05-01T02:16:59.842Z,20.90
2023-05-01T02:17:59.832Z,20.93
2023-05-01T02:18:59.793Z,20.97
2023-05-01T02:19:59.796Z,20.91
2023-05-01T02:20:59.760Z,20.97
2023-05-01T02:21:59.808Z,20.89
2023-05-01T02:22:59.764Z,20.91
2023-05-01T02:23:59.771Z,20.89
2023-05-01T02:24:59.788Z,20.93
2023-05-01T02:25:58.753Z,20.91
2023-05-01T02:26:59.738Z,20.90
2023-05-01T02:27:59.706Z,20.91
2023-05-01T02:28:59.711Z,20.90
2023-05-01T02:29:59.705Z,20.87
2023-05-01T02:30:59.715Z,20.90
2023-05-01T02:31:59.719Z,20.91
2023-05-01T02:32:59.719Z,20.90
2023-05-01T02:33:58.673Z,20.94
2023-05-01T02:34:59.676Z,20.91
2023-05-01T02:35:58.662Z,20.93
2023-05-01T02:36:59.707Z,20.90
2023-05-01T02:37:58.677Z,20.90
2023-05-01T02:38:59.668Z,20.94
2023-05-01T02:39:58.917Z,20.89
2023-05-01T02:40:59.647Z,20.93
2023-05-01T02:41:59.706Z,20.90
2023-05-01T02:42:58.627Z,20.93
2023-05-01T02:43:58.605Z,20.90
2023-05-01T02:44:58.599Z,20.90
2023-05-01T02:45:58.671Z,20.87
2023-05-01T02:46:59.654Z,20.84
2023-05-01T02:47:59.778Z,20.89
2023-05-01T02:48:59.581Z,20.90
2023-05-01T02:49:59.675Z,20.86
2023-05-01T02:50:58.592Z,20.84
2023-05-01T02:51:59.572Z,20.89
2023-05-01T02:52:59.555Z,20.84
2023-05-01T02:53:59.570Z,20.87
2023-05-01T02:54:58.549Z,20.87
2023-05-01T02:55:59.540Z,20.91
2023-05-01T02:56:59.532Z,20.87
2023-05-01T02:57:59.532Z,20.89
2023-05-01T02:58:58.508Z,20.87
2023-05-01T02:59:59.526Z,20.90
2023-05-01T03:00:58.518Z,20.93
2023-05-01T03:01:59.538Z,20.90
2023-05-01T03:02:59.566Z,20.90
2023-05-01T03:03:59.526Z,20.87
2023-05-01T03:04:59.462Z,20.89
2023-05-01T03:05:58.531Z,20.87
2023-05-01T03:06:59.459Z,20.87
2023-05-01T03:07:59.463Z,20.86
2023-05-01T03:08:59.462Z,20.90
2023-05-01T03:09:58.652Z,20.86
2023-05-01T03:10:58.439Z,20.86
2023-05-01T03:11:59.425Z,20.90
2023-05-01T03:12:59.413Z,20.86
2023-05-01T03:13:58.416Z,20.84
2023-05-01T03:14:59.474Z,20.87
2023-05-01T03:15:58.515Z,20.86
2023-05-01T03:16:59.529Z,20.86
2023-05-01T03:17:58.498Z,20.91
2023-05-01T03:18:58.504Z,20.89
2023-05-01T03:19:59.523Z,20.89
2023-05-01T03:20:59.518Z,20.84
2023-05-01T03:21:59.569Z,20.87
2023-05-01T03:22:59.543Z,20.89
2023-05-01T03:23:59.576Z,20.86
2023-05-01T03:24:59.604Z,20.80
2023-05-01T03:25:58.625Z,20.83
2023-05-01T03:26:59.646Z,20.87
2023-05-01T03:27:59.658Z,20.84
2023-05-01T03:28:58.695Z,20.83
2023-05-01T03:29:58.773Z,20.83
2023-05-01T03:30:58.700Z,20.82
2023-05-01T03:31:58.782Z,20.80
2023-05-01T03:32:59.796Z,20.84
2023-05-01T03:33:58.780Z,20.82
2023-05-01T03:34:59.826Z,20.82
2023-05-01T03:35:59.979Z,20.84
2023-05-01T03:36:58.852Z,20.84
2023-05-01T03:37:58.880Z,20.82
2023-05-01T03:38:58.899Z,20.80
2023-05-01T03:39:59.894Z,20.82
2023-05-01T03:40:59.918Z,20.80
2023-05-01T03:41:59.988Z,20.84
2023-05-01T03:42:59.999Z,20.80
2023-05-01T03:43:59.997Z,20.83
2023-05-01T03:45:00.026Z,20.77
2023-05-01T03:46:00.080Z,20.80
2023-05-01T03:47:00.117Z,20.86
2023-05-01T03:48:00.181Z,20.80
2023-05-01T03:49:00.130Z,20.83
2023-05-01T03:49:59.221Z,20.79
2023-05-01T03:51:00.174Z,20.82
2023-05-01T03:52:00.191Z,20.80
2023-05-01T03:53:00.263Z,20.76
2023-05-01T03:54:00.356Z,20.82
2023-05-01T03:55:00.285Z,20.79
2023-05-01T03:56:00.319Z,20.80
2023-05-01T03:57:00.358Z,20.79
2023-05-01T03:57:59.415Z,20.80
2023-05-01T03:59:00.404Z,20.77
2023-05-01T03:59:59.548Z,20.80
2023-05-01T04:01:00.485Z,20.80
2023-05-01T04:01:59.520Z,20.80
2023-05-01T04:03:00.742Z,20.80
2023-05-01T04:04:00.596Z,20.79
2023-05-01T04:05:00.574Z,20.83
2023-05-01T04:05:59.628Z,20.74
2023-05-01T04:07:00.652Z,20.80
2023-05-01T04:08:00.665Z,20.79
2023-05-01T04:09:00.702Z,20.80
2023-05-01T04:09:59.718Z,20.79
2023-05-01T04:11:00.761Z,20.83
2023-05-01T04:11:59.785Z,20.80
2023-05-01T04:13:00.823Z,20.82
2023-05-01T04:14:00.889Z,20.79
2023-05-01T04:15:00.908Z,20.76
2023-05-01T04:15:59.946Z,20.77
2023-05-01T04:17:00.962Z,20.79
2023-05-01T04:18:00.998Z,20.79
2023-05-01T04:19:00.025Z,20.76
2023-05-01T04:20:00.128Z,20.77
2023-05-01T04:21:00.123Z,20.76
2023-05-01T04:22:01.121Z,20.76
2023-05-01T04:23:00.161Z,20.79
2023-05-01T04:24:01.195Z,20.76
2023-05-01T04:25:01.374Z,20.74
2023-05-01T04:26:01.272Z,20.79
2023-05-01T04:27:01.316Z,20.79
2023-05-01T04:28:01.351Z,20.76
2023-05-01T04:29:00.389Z,20.76
2023-05-01T04:30:01.461Z,20.77
2023-05-01T04:31:00.642Z,20.73
2023-05-01T04:32:01.512Z,20.77
2023-05-01T04:33:00.557Z,20.79
2023-05-01T04:34:00.567Z,20.76
2023-05-01T04:35:00.715Z,20.74
2023-05-01T04:36:01.665Z,20.76
2023-05-01T04:37:00.696Z,20.74
2023-05-01T04:38:01.720Z,20.74
2023-05-01T04:39:01.756Z,20.72
2023-05-01T04:40:00.787Z,20.76
2023-05-01T04:41:00.812Z,20.80
2023-05-01T04:42:01.859Z,20.76
2023-05-01T04:43:01.929Z,20.76
2023-05-01T04:44:01.977Z,20.77
2023-05-01T04:45:02.008Z,20.82
2023-05-01T04:46:02.084Z,20.77
2023-05-01T04:47:02.098Z,20.82
2023-05-01T04:48:02.128Z,20.76
2023-05-01T04:49:02.121Z,20.76
2023-05-01T04:50:01.152Z,20.77
2023-05-01T04:51:02.184Z,20.77
2023-05-01T04:52:02.180Z,20.76
2023-05-01T04:53:02.218Z,20.74
2023-05-01T04:54:02.257Z,20.79
2023-05-01T04:55:02.291Z,20.79
2023-05-01T04:56:02.318Z,20.76
2023-05-01T04:57:02.328Z,20.74
2023-05-01T04:58:02.368Z,20.74
2023-05-01T04:59:02.411Z,20.76
2023-05-01T05:00:02.489Z,20.74
2023-05-01T05:01:01.465Z,20.73
2023-05-01T05:02:02.712Z,20.79
2023-05-01T05:03:01.583Z,20.77
2023-05-01T05:04:01.558Z,20.77
2023-05-01T05:05:01.536Z,20.74
2023-05-01T05:06:02.609Z,20.74
2023-05-01T05:07:02.569Z,20.79
2023-05-01T05:08:02.667Z,20.76
2023-05-01T05:09:01.659Z,20.74
2023-05-01T05:10:02.675Z,20.76
2023-05-01T05:11:02.714Z,20.74
2023-05-01T05:12:02.756Z,20.73
2023-05-01T05:13:01.799Z,20.76
2023-05-01T05:14:02.839Z,20.77
2023-05-01T05:15:01.848Z,20.73
2023-05-01T05:16:02.908Z,20.73
2023-05-01T05:17:02.900Z,20.77
2023-05-01T05:18:03.052Z,20.82
2023-05-01T05:19:03.000Z,20.76
2023-05-01T05:20:02.053Z,20.77
2023-05-01T05:21:03.061Z,20.73
2023-05-01T05:22:02.088Z,20.79
2023-05-01T05:23:02.168Z,20.79
2023-05-01T05:24:03.143Z,20.77
2023-05-01T05:25:02.188Z,20.76
2023-05-01T05:26:03.234Z,20.77
2023-05-01T05:27:03.260Z,20.74
2023-05-01T05:28:03.324Z,20.77
2023-05-01T05:29:03.380Z,20.77
2023-05-01T05:30:03.354Z,20.82
2023-05-01T05:31:03.390Z,20.80
2023-05-01T05:32:02.431Z,20.74
2023-05-01T05:33:02.628Z,20.83
2023-05-01T05:34:03.509Z,20.77
2023-05-01T05:35:03.517Z,20.74
2023-05-01T05:36:03.596Z,20.77
2023-05-01T05:37:03.579Z,20.76
2023-05-01T05:38:03.629Z,20.79
2023-05-01T05:39:02.652Z,20.77
2023-05-01T05:40:03.664Z,20.82
2023-05-01T05:41:03.678Z,20.82
2023-05-01T05:42:03.746Z,20.83
2023-05-01T05:43:03.817Z,20.82
2023-05-01T05:44:02.772Z,20.83
2023-05-01T05:45:03.809Z,20.82
2023-05-01T05:46:03.888Z,20.83
2023-05-01T05:47:03.881Z,20.83
2023-05-01T05:48:03.942Z,20.82
2023-05-01T05:49:03.914Z,20.82
2023-05-01T05:50:03.955Z,20.84
2023-05-01T05:51:03.976Z,20.82
2023-05-01T05:52:04.035Z,20.83
2023-05-01T05:53:04.061Z,20.84
2023-05-01T05:54:04.091Z,20.87
2023-05-01T05:55:03.123Z,20.84
2023-05-01T05:56:03.134Z,20.87
2023-05-01T05:57:03.165Z,20.87
2023-05-01T05:58:04.302Z,20.91
2023-05-01T05:59:04.244Z,20.87
2023-05-01T06:00:03.259Z,20.87
2023-05-01T06:01:04.297Z,20.90
2023-05-01T06:02:03.460Z,20.90
2023-05-01T06:03:04.515Z,20.91
2023-05-01T06:04:03.399Z,20.90
2023-05-01T06:05:04.455Z,20.94
2023-05-01T06:06:04.580Z,20.86
2023-05-01T06:07:04.604Z,20.91
2023-05-01T06:08:04.510Z,20.93
2023-05-01T06:09:04.537Z,20.89
2023-05-01T06:10:04.577Z,20.89
2023-05-01T06:11:04.613Z,20.90
2023-05-01T06:12:03.629Z,20.90
2023-05-01T06:13:14.259Z,20.89
2023-05-01T06:14:04.675Z,20.91
2023-05-01T06:15:04.672Z,20.90
2023-05-01T06:16:04.715Z,20.94
2023-05-01T06:17:03.639Z,20.94
2023-05-01T06:18:03.743Z,20.89
2023-05-01T06:19:03.630Z,20.95
2023-05-01T06:20:04.633Z,20.91
2023-05-01T06:21:04.652Z,20.90
2023-05-01T06:22:04.655Z,20.93
2023-05-01T06:23:04.628Z,20.91
2023-05-01T06:24:03.651Z,20.90
2023-05-01T06:25:04.589Z,20.93
2023-05-01T06:26:04.581Z,20.93
2023-05-01T06:27:03.581Z,20.95
2023-05-01T06:28:03.572Z,20.93
2023-05-01T06:29:03.591Z,20.98
2023-05-01T06:30:03.555Z,20.95
2023-05-01T06:31:03.597Z,20.94
2023-05-01T06:32:04.533Z,20.94
2023-05-01T06:33:04.632Z,20.97
2023-05-01T06:34:03.519Z,20.95
2023-05-01T06:35:03.516Z,20.97
2023-05-01T06:36:03.522Z,20.97
2023-05-01T06:37:04.518Z,21.01
2023-05-01T06:38:03.558Z,21.05
2023-05-01T06:39:04.530Z,21.01
2023-05-01T06:40:04.562Z,21.01
2023-05-01T06:41:03.493Z,21.01
2023-05-01T06:42:03.468Z,21.01
2023-05-01T06:43:03.508Z,21.01
2023-05-01T06:44:03.463Z,21.01
2023-05-01T06:45:04.457Z,21.03
2023-05-01T06:46:04.424Z,21.04
2023-05-01T06:47:04.532Z,21.03
2023-05-01T06:48:04.459Z,21.03
2023-05-01T06:49:04.432Z,21.05
2023-05-01T06:50:05.331Z,21.03
2023-05-01T06:51:04.416Z,21.03
2023-05-01T06:52:04.400Z,21.04
2023-05-01T06:53:04.408Z,21.03
2023-05-01T06:54:03.438Z,21.04
2023-05-01T06:55:04.384Z,21.03
2023-05-01T06:56:04.439Z,21.04
2023-05-01T06:57:03.416Z,21.04
2023-05-01T06:58:15.918Z,21.07
2023-05-01T06:59:04.446Z,21.03
2023-05-01T07:00:04.405Z,21.07
2023-05-01T07:01:04.441Z,21.05
2023-05-01T07:02:04.434Z,21.04
2023-05-01T07:03:04.418Z,21.08
2023-05-01T07:04:04.400Z,21.05
2023-05-01T07:05:04.412Z,21.07
2023-05-01T07:06:03.423Z,21.07
2023-05-01T07:07:04.381Z,21.08
2023-05-01T07:08:04.419Z,21.10
2023-05-01T07:09:04.358Z,21.08
2023-05-01T07:10:04.414Z,21.05
2023-05-01T07:11:03.319Z,21.10
2023-05-01T07:12:04.363Z,21.08
2023-05-01T07:13:04.323Z,21.10
2023-05-01T07:14:03.353Z,21.11
2023-05-01T07:15:04.351Z,21.08
2023-05-01T07:16:04.317Z,21.08
2023-05-01T07:17:04.301Z,21.10
2023-05-01T07:18:04.356Z,21.11
2023-05-01T07:19:04.302Z,21.11
2023-05-01T07:20:04.317Z,21.08
2023-05-01T07:21:03.297Z,21.13
2023-05-01T07:22:04.240Z,21.10
2023-05-01T07:23:06.608Z,21.13
2023-05-01T07:24:04.260Z,21.11
2023-05-01T07:25:04.267Z,21.14
2023-05-01T07:26:04.320Z,21.11
2023-05-01T07:27:03.241Z,21.14
2023-05-01T07:28:04.220Z,21.13
2023-05-01T07:29:03.237Z,21.13
2023-05-01T07:30:04.203Z,21.14
2023-05-01T07:31:03.199Z,21.11
2023-05-01T07:32:04.239Z,21.13
2023-05-01T07:33:04.214Z,21.13
2023-05-01T07:34:03.204Z,21.14
2023-05-01T07:35:04.169Z,21.11
2023-05-01T07:36:04.178Z,21.11
2023-05-01T07:37:03.165Z,21.11
2023-05-01T07:38:03.161Z,21.11
2023-05-01T07:39:04.155Z,21.11
2023-05-01T07:40:04.137Z,21.14
2023-05-01T07:41:03.265Z,21.15
2023-05-01T07:42:04.155Z,21.14
2023-05-01T07:43:04.116Z,21.11
2023-05-01T07:44:03.129Z,21.14
2023-05-01T07:45:03.158Z,21.15
2023-05-01T07:46:04.122Z,21.18
2023-05-01T07:47:03.081Z,21.15
2023-05-01T07:48:04.151Z,21.18
2023-05-01T07:49:04.087Z,21.17
2023-05-01T07:50:03.063Z,21.17
2023-05-01T07:51:04.083Z,21.17
2023-05-01T07:52:03.091Z,21.15
2023-05-01T07:53:03.061Z,21.15
2023-05-01T07:54:04.040Z,21.17
2023-05-01T07:55:04.028Z,21.18
2023-05-01T07:56:03.023Z,21.15
2023-05-01T07:57:04.038Z,21.17
2023-05-01T07:58:04.300Z,21.17
2023-05-01T07:59:04.059Z,21.18
2023-05-01T08:00:04.050Z,21.18
2023-05-01T08:01:02.985Z,21.18
2023-05-01T08:02:04.027Z,21.20
2023-05-01T08:03:04.031Z,21.21
2023-05-01T08:04:03.037Z,21.21
2023-05-01T08:05:03.069Z,21.20
2023-05-01T08:06:03.087Z,21.24
2023-05-01T08:07:03.937Z,21.24
2023-05-01T08:08:03.978Z,21.21
2023-05-01T08:09:03.942Z,21.21
2023-05-01T08:10:03.225Z,21.21
2023-05-01T08:11:02.922Z,21.24
2023-05-01T08:12:02.938Z,21.22
2023-05-01T08:13:03.960Z,21.21
2023-05-01T08:14:02.968Z,21.24
2023-05-01T08:15:02.901Z,21.24
2023-05-01T08:16:03.977Z,21.25
2023-05-01T08:17:03.904Z,21.25
2023-05-01T08:18:02.927Z,21.27
2023-05-01T08:19:03.888Z,21.25
2023-05-01T08:20:03.887Z,21.25
2023-05-01T08:21:03.863Z,21.27
2023-05-01T08:22:02.864Z,21.28
2023-05-01T08:23:03.886Z,21.30
2023-05-01T08:24:03.931Z,21.32
2023-05-01T08:25:03.917Z,21.28
2023-05-01T08:26:02.908Z,21.30
2023-05-01T08:27:03.935Z,21.31
2023-05-01T08:28:03.940Z,21.28
2023-05-01T08:29:03.975Z,21.31
2023-05-01T08:30:03.959Z,21.31
2023-05-01T08:31:02.972Z,21.32
2023-05-01T08:32:03.967Z,21.31
2023-05-01T08:33:04.034Z,21.34
2023-05-01T08:34:03.025Z,21.34
2023-05-01T08:35:04.002Z,21.34
2023-05-01T08:36:03.980Z,21.35
2023-05-01T08:37:04.017Z,21.35
2023-05-01T08:38:03.041Z,21.35
2023-05-01T08:39:04.003Z,21.35
2023-05-01T08:40:04.409Z,21.37
2023-05-01T08:41:04.029Z,21.34
2023-05-01T08:42:04.059Z,21.35
2023-05-01T08:43:03.043Z,21.40
2023-05-01T08:44:04.015Z,21.37
2023-05-01T08:45:03.043Z,21.38
2023-05-01T08:46:04.117Z,21.38
2023-05-01T08:47:03.169Z,21.38
2023-05-01T08:48:04.070Z,21.40
2023-05-01T08:49:04.005Z,21.41
2023-05-01T08:50:03.085Z,21.40
2023-05-01T08:51:03.054Z,21.41
2023-05-01T08:52:03.036Z,21.40
2023-05-01T08:53:04.007Z,21.38
2023-05-01T08:54:04.027Z,21.40
2023-05-01T08:55:04.029Z,21.42
2023-05-01T08:56:04.018Z,21.42
2023-05-01T08:57:04.006Z,21.42
2023-05-01T08:58:04.018Z,21.42
2023-05-01T08:59:04.003Z,21.42
2023-05-01T09:00:04.013Z,21.42
2023-05-01T09:01:03.046Z,21.42
2023-05-01T09:02:04.048Z,21.42
2023-05-01T09:03:03.120Z,21.42
2023-05-01T09:04:04.115Z,21.44
2023-05-01T09:05:03.005Z,21.45
2023-05-01T09:06:03.081Z,21.45
2023-05-01T09:07:03.984Z,21.45
2023-05-01T09:08:03.990Z,21.46
2023-05-01T09:09:03.983Z,21.46
2023-05-01T09:10:02.998Z,21.46
2023-05-01T09:11:04.030Z,21.46
2023-05-01T09:12:04.017Z,21.46
2023-05-01T09:13:02.999Z,21.48
2023-05-01T09:14:03.980Z,21.48
2023-05-01T09:15:04.012Z,21.48
2023-05-01T09:16:04.003Z,21.48
2023-05-01T09:17:02.963Z,21.49
2023-05-01T09:18:04.309Z,21.48
2023-05-01T09:19:02.971Z,21.48
2023-05-01T09:20:02.966Z,21.51
2023-05-01T09:21:04.036Z,21.51
2023-05-01T09:22:03.982Z,21.51
2023-05-01T09:23:04.005Z,21.52
2023-05-01T09:24:03.001Z,21.52
2023-05-01T09:25:03.023Z,21.52
2023-05-01T09:26:02.996Z,21.52
2023-05-01T09:27:02.997Z,21.52
2023-05-01T09:28:04.037Z,21.53
2023-05-01T09:29:03.032Z,21.55
2023-05-01T09:30:04.013Z,21.53
2023-05-01T09:31:04.040Z,21.55
2023-05-01T09:32:04.091Z,21.52
2023-05-01T09:33:03.080Z,21.55
2023-05-01T09:34:03.080Z,21.55
2023-05-01T09:35:04.088Z,21.56
2023-05-01T09:36:03.058Z,21.56
2023-05-01T09:37:04.104Z,21.56
2023-05-01T09:38:03.140Z,21.58
2023-05-01T09:39:04.216Z,21.58
2023-05-01T09:40:03.246Z,21.58
2023-05-01T09:41:04.216Z,21.56
2023-05-01T09:42:04.255Z,21.58
2023-05-01T09:43:04.348Z,21.58
2023-05-01T09:44:03.339Z,21.60
2023-05-01T09:45:04.386Z,21.59
2023-05-01T09:46:04.459Z,21.59
2023-05-01T09:47:03.398Z,21.60
2023-05-01T09:48:03.460Z,21.60
2023-05-01T09:49:03.388Z,21.60
2023-05-01T09:50:04.454Z,21.59
2023-05-01T09:51:03.476Z,21.62
2023-05-01T09:52:03.441Z,21.63
2023-05-01T09:53:03.466Z,21.65
2023-05-01T09:54:03.488Z,21.65
2023-05-01T09:55:04.500Z,21.63
2023-05-01T09:56:04.466Z,21.65
2023-05-01T09:57:04.487Z,21.63
2023-05-01T09:58:04.498Z,21.66
2023-05-01T09:59:04.525Z,21.65
2023-05-01T10:00:03.557Z,21.66
2023-05-01T10:01:04.631Z,21.68
2023-05-01T10:02:04.692Z,21.63
2023-05-01T10:03:04.854Z,21.69
2023-05-01T10:04:03.700Z,21.66
2023-05-01T10:05:04.714Z,21.68
2023-05-01T10:06:04.704Z,21.68
2023-05-01T10:07:04.656Z,21.68
2023-05-01T10:08:03.776Z,21.68
2023-05-01T10:09:04.613Z,21.68
2023-05-01T10:10:03.867Z,21.68
2023-05-01T10:11:04.580Z,21.69
2023-05-01T10:12:03.584Z,21.70
2023-05-01T10:13:04.557Z,21.69
2023-05-01T10:14:04.562Z,21.70
2023-05-01T10:15:13.828Z,21.68
2023-05-01T10:16:04.562Z,21.70
2023-05-01T10:17:03.600Z,21.73
2023-05-01T10:18:03.646Z,21.69
2023-05-01T10:19:04.449Z,21.70
2023-05-01T10:20:04.528Z,21.73
2023-05-01T10:21:04.546Z,21.72
2023-05-01T10:22:04.519Z,21.73
2023-05-01T10:23:04.526Z,21.69
2023-05-01T10:24:03.477Z,21.70
2023-05-01T10:25:04.521Z,21.73
2023-05-01T10:26:05.235Z,21.72
2023-05-01T10:27:04.495Z,21.75
2023-05-01T10:28:03.558Z,21.75
2023-05-01T10:29:04.601Z,21.73
2023-05-01T10:30:04.668Z,21.76
2023-05-01T10:31:04.805Z,21.76
2023-05-01T10:32:04.866Z,21.73
2023-05-01T10:33:03.987Z,21.75
2023-05-01T10:34:04.929Z,21.76
2023-05-01T10:35:04.980Z,21.75
2023-05-01T10:36:05.056Z,21.76
2023-05-01T10:37:04.108Z,21.78
2023-05-01T10:38:04.194Z,21.78
2023-05-01T10:39:04.218Z,21.73
2023-05-01T10:40:05.288Z,21.76
2023-05-01T10:41:05.392Z,21.76
2023-05-01T10:42:04.404Z,21.78
2023-05-01T10:43:04.468Z,21.79
2023-05-01T10:44:05.551Z,21.79
2023-05-01T10:45:05.577Z,21.79
2023-05-01T10:46:05.763Z,21.78
2023-05-01T10:47:04.695Z,21.80
2023-05-01T10:48:05.834Z,21.80
2023-05-01T10:49:04.838Z,21.79
2023-05-01T10:50:06.055Z,21.80
2023-05-01T10:51:05.956Z,21.80
2023-05-01T10:52:05.002Z,21.80
2023-05-01T10:53:05.075Z,21.79
2023-05-01T10:54:06.132Z,21.80
2023-05-01T10:55:05.164Z,21.80
2023-05-01T10:56:05.236Z,21.80
2023-05-01T10:57:06.269Z,21.82
2023-05-01T10:58:06.363Z,21.80
2023-05-01T10:59:06.395Z,21.80
2023-05-01T11:00:06.465Z,21.83
2023-05-01T11:01:06.521Z,21.82
2023-05-01T11:02:06.657Z,21.82
2023-05-01T11:03:05.658Z,21.82
2023-05-01T11:04:06.658Z,21.80
2023-05-01T11:05:05.753Z,21.82
2023-05-01T11:06:05.957Z,21.82
2023-05-01T11:07:06.036Z,21.83
2023-05-01T11:08:06.876Z,21.82
2023-05-01T11:09:05.920Z,21.83
2023-05-01T11:10:07.003Z,21.85
2023-05-01T11:11:07.081Z,21.85
2023-05-01T11:12:07.096Z,21.85
2023-05-01T11:13:07.121Z,21.83
2023-05-01T11:14:06.197Z,21.85
2023-05-01T11:15:07.229Z,21.85
2023-05-01T11:16:07.337Z,21.85
2023-05-01T11:17:07.343Z,21.85
2023-05-01T11:18:06.560Z,21.86
2023-05-01T11:19:07.446Z,21.86
2023-05-01T11:20:06.480Z,21.85
2023-05-01T11:21:07.560Z,21.89
2023-05-01T11:22:07.582Z,21.85
2023-05-01T11:23:06.630Z,21.85
2023-05-01T11:24:06.677Z,21.86
2023-05-01T11:25:07.762Z,21.87
2023-05-01T11:26:07.838Z,21.86
2023-05-01T11:27:06.899Z,21.86
2023-05-01T11:28:07.105Z,21.87
2023-05-01T11:29:07.943Z,21.87
2023-05-01T11:30:06.995Z,21.86
2023-05-01T11:31:08.179Z,21.87
2023-05-01T11:32:07.131Z,21.89
2023-05-01T11:33:10.618Z,21.87
2023-05-01T11:34:08.171Z,21.87
2023-05-01T11:35:07.133Z,21.87
2023-05-01T11:36:08.151Z,21.86
2023-05-01T11:37:07.134Z,21.86
2023-05-01T11:38:08.132Z,21.87
2023-05-01T11:39:07.108Z,21.86
2023-05-01T11:40:08.109Z,21.89
2023-05-01T11:41:07.133Z,21.87
2023-05-01T11:42:08.141Z,21.87
2023-05-01T11:43:08.101Z,21.86
2023-05-01T11:44:07.112Z,21.86
2023-05-01T11:45:08.095Z,21.86
2023-05-01T11:46:08.116Z,21.87
2023-05-01T11:47:07.070Z,21.86
2023-05-01T11:48:08.163Z,21.89
2023-05-01T11:49:08.042Z,21.86
2023-05-01T11:50:07.036Z,21.86
2023-05-01T11:51:08.041Z,21.87
2023-05-01T11:52:08.058Z,21.87
2023-05-01T11:53:08.032Z,21.87
2023-05-01T11:54:08.001Z,21.87
2023-05-01T11:55:07.025Z,21.87
2023-05-01T11:56:19.462Z,21.89
2023-05-01T11:57:08.207Z,21.86
2023-05-01T11:58:08.011Z,21.87
2023-05-01T11:59:08.013Z,21.87
2023-05-01T12:00:07.968Z,21.87
2023-05-01T12:01:07.976Z,21.86
2023-05-01T12:02:09.404Z,21.89
2023-05-01T12:03:08.232Z,21.85
2023-05-01T12:04:07.039Z,21.89
2023-05-01T12:05:07.582Z,21.89
2023-05-01T12:06:08.095Z,21.86
2023-05-01T12:07:07.926Z,21.87
2023-05-01T12:08:07.919Z,21.87
2023-05-01T12:09:07.933Z,21.87
2023-05-01T12:10:06.921Z,21.87
2023-05-01T12:11:07.909Z,21.87
2023-05-01T12:12:07.893Z,21.87
2023-05-01T12:13:07.883Z,21.87
2023-05-01T12:14:07.994Z,21.87
2023-05-01T12:15:07.875Z,21.86
2023-05-01T12:16:07.908Z,21.89
2023-05-01T12:17:06.943Z,21.89
2023-05-01T12:18:08.391Z,21.85
2023-05-01T12:19:07.862Z,21.86
2023-05-01T12:20:06.917Z,21.85
2023-05-01T12:21:07.993Z,21.86
2023-05-01T12:22:08.070Z,21.85
2023-05-01T12:23:07.112Z,21.85
2023-05-01T12:24:08.177Z,21.86
2023-05-01T12:25:08.244Z,21.85
2023-05-01T12:26:08.301Z,21.89
2023-05-01T12:27:08.369Z,21.85
2023-05-01T12:28:08.490Z,21.85
2023-05-01T12:29:07.477Z,21.86
2023-05-01T12:30:07.641Z,21.85
2023-05-01T12:31:08.644Z,21.82
2023-05-01T12:32:08.849Z,21.82
2023-05-01T12:33:08.767Z,21.85
2023-05-01T12:34:07.775Z,21.85
2023-05-01T12:35:07.837Z,21.85
2023-05-01T12:36:07.910Z,21.83
2023-05-01T12:37:07.960Z,21.83
2023-05-01T12:38:09.027Z,21.83
2023-05-01T12:39:09.101Z,21.85
2023-05-01T12:40:08.299Z,21.83
2023-05-01T12:41:09.206Z,21.83
2023-05-01T12:42:08.322Z,21.82
2023-05-01T12:43:08.329Z,21.83
2023-05-01T12:44:09.403Z,21.83
2023-05-01T12:45:08.465Z,21.83
2023-05-01T12:46:08.556Z,21.80
2023-05-01T12:47:08.584Z,21.82
2023-05-01T12:48:08.686Z,21.82
2023-05-01T12:49:08.669Z,21.80
2023-05-01T12:50:09.746Z,21.80
2023-05-01T12:51:09.798Z,21.82
2023-05-01T12:52:09.006Z,21.85
2023-05-01T12:53:09.913Z,21.83